createdAt,value
2019-04-30T00:00:18.300Z,22.30
2019-04-30T00:01:18.813Z,24.70
2019-04-30T00:02:16.329Z,20.60
2019-04-30T00:03:19.603Z,21.20
2019-04-30T00:04:16.339Z,20.90
2019-04-30T00:05:18.814Z,20.40
2019-04-30T00:06:16.273Z,19.60
2019-04-30T00:07:19.064Z,20.00
2019-04-30T00:08:16.247Z,20.80
2019-04-30T00:09:18.987Z,17.50
2019-04-30T00:10:16.244Z,19.40
2019-04-30T00:11:19.474Z,17.80
2019-04-30T00:12:16.204Z,18.20
2019-04-30T00:13:20.677Z,21.80
2019-04-30T00:14:16.185Z,17.20
2019-04-30T00:15:19.533Z,17.80
2019-04-30T00:16:16.185Z,17.60
2019-04-30T00:17:19.612Z,17.60
2019-04-30T00:18:16.137Z,16.90
2019-04-30T00:19:19.625Z,18.00
2019-04-30T00:20:17.651Z,18.10
2019-04-30T00:21:18.705Z,18.60
2019-04-30T00:22:16.130Z,19.20
2019-04-30T00:23:17.959Z,17.30
2019-04-30T00:24:16.065Z,19.80
2019-04-30T00:25:19.637Z,18.80
2019-04-30T00:26:17.360Z,18.40
2019-04-30T00:27:16.036Z,16.20
2019-04-30T00:28:16.040Z,17.10
2019-04-30T00:29:19.100Z,17.20
2019-04-30T00:30:16.998Z,15.60
2019-04-30T00:31:17.338Z,21.20
2019-04-30T00:32:16.979Z,21.70
2019-04-30T00:33:22.045Z,21.10
2019-04-30T00:34:16.981Z,20.90
2019-04-30T00:35:19.518Z,20.80
2019-04-30T00:36:17.321Z,19.60
2019-04-30T00:37:18.810Z,20.40
2019-04-30T00:38:15.904Z,20.10
2019-04-30T00:39:16.729Z,20.70
2019-04-30T00:40:15.885Z,18.00
2019-04-30T00:41:15.878Z,18.40
2019-04-30T00:42:17.241Z,19.80
2019-04-30T00:43:17.141Z,18.60
2019-04-30T00:44:19.889Z,18.60
2019-04-30T00:45:16.859Z,16.30
2019-04-30T00:46:17.414Z,18.40
2019-04-30T00:47:16.803Z,17.10
2019-04-30T00:48:19.349Z,18.10
2019-04-30T00:49:22.846Z,19.20
2019-04-30T00:50:16.792Z,18.60
2019-04-30T00:51:21.116Z,18.50
2019-04-30T00:52:16.756Z,18.40
2019-04-30T00:53:16.614Z,19.10
2019-04-30T00:54:17.666Z,18.70
2019-04-30T00:55:15.733Z,22.40
2019-04-30T00:56:19.900Z,19.30
2019-04-30T00:57:16.699Z,19.30
2019-04-30T00:58:17.693Z,17.80
2019-04-30T00:59:15.674Z,20.00
2019-04-30T01:00:17.798Z,17.60
2019-04-30T01:01:16.654Z,19.70
2019-04-30T01:02:20.201Z,20.00
2019-04-30T01:03:16.625Z,19.70
2019-04-30T01:04:19.381Z,19.30
2019-04-30T01:05:16.643Z,19.00
2019-04-30T01:06:17.283Z,19.00
2019-04-30T01:07:16.591Z,20.10
2019-04-30T01:08:15.606Z,19.90
2019-04-30T01:09:15.666Z,18.50
2019-04-30T01:10:19.581Z,19.30
2019-04-30T01:11:16.550Z,19.40
2019-04-30T01:12:17.350Z,16.80
2019-04-30T01:13:16.525Z,17.20
2019-04-30T01:14:15.506Z,17.00
2019-04-30T01:15:15.522Z,17.40
2019-04-30T01:16:15.508Z,17.60
2019-04-30T01:17:15.473Z,16.70
2019-04-30T01:18:15.463Z,15.80
2019-04-30T01:19:27.526Z,20.30
2019-04-30T01:20:16.447Z,16.90
2019-04-30T01:21:15.495Z,16.10
2019-04-30T01:22:21.579Z,15.90
2019-04-30T01:23:16.401Z,17.10
2019-04-30T01:24:15.394Z,16.30
2019-04-30T01:25:15.383Z,15.50
2019-04-30T01:26:15.389Z,14.30
2019-04-30T01:27:15.418Z,16.00
2019-04-30T01:28:16.380Z,17.60
2019-04-30T01:29:15.337Z,16.10
2019-04-30T01:30:18.711Z,17.70
2019-04-30T01:31:16.321Z,14.60
2019-04-30T01:32:17.375Z,15.90
2019-04-30T01:33:16.351Z,15.20
2019-04-30T01:34:15.285Z,14.20
2019-04-30T01:35:15.269Z,15.80
2019-04-30T01:36:15.256Z,16.40
2019-04-30T01:37:15.247Z,12.40
2019-04-30T01:38:15.242Z,12.10
2019-04-30T01:39:15.278Z,10.60
2019-04-30T01:40:15.221Z,13.60
2019-04-30T01:41:15.209Z,12.60
2019-04-30T01:42:15.186Z,10.60
2019-04-30T01:43:15.204Z,11.20
2019-04-30T01:44:15.177Z,10.60
2019-04-30T01:45:15.191Z,9.90
2019-04-30T01:46:15.149Z,8.60
2019-04-30T01:47:15.168Z,9.40
2019-04-30T01:48:15.152Z,8.50
2019-04-30T01:49:15.163Z,10.00
2019-04-30T01:50:15.113Z,9.80
2019-04-30T01:51:20.455Z,10.90
2019-04-30T01:52:15.082Z,8.10
2019-04-30T01:53:15.072Z,8.00
2019-04-30T01:54:21.154Z,8.50
2019-04-30T01:55:16.099Z,8.50
2019-04-30T01:56:15.025Z,7.40
2019-04-30T01:57:15.044Z,7.90
2019-04-30T01:58:15.043Z,9.10
2019-04-30T01:59:15.025Z,8.30
2019-04-30T02:00:14.988Z,8.00
2019-04-30T02:01:15.021Z,8.00
2019-04-30T02:02:14.969Z,6.90
2019-04-30T02:03:14.963Z,6.90
2019-04-30T02:04:14.950Z,7.10
2019-04-30T02:05:14.940Z,9.50
2019-04-30T02:06:14.953Z,7.40
2019-04-30T02:07:14.924Z,8.90
2019-04-30T02:08:14.924Z,8.70
2019-04-30T02:09:14.890Z,7.80
2019-04-30T02:10:14.880Z,7.10
2019-04-30T02:11:14.896Z,7.80
2019-04-30T02:12:14.883Z,9.40
2019-04-30T02:13:14.848Z,9.70
2019-04-30T02:14:14.847Z,6.30
2019-04-30T02:15:14.830Z,7.20
2019-04-30T02:16:14.859Z,7.00
2019-04-30T02:17:14.834Z,9.10
2019-04-30T02:18:14.790Z,8.60
2019-04-30T02:19:14.781Z,6.70
2019-04-30T02:20:14.771Z,7.10
2019-04-30T02:21:14.766Z,7.60
2019-04-30T02:22:14.753Z,8.50
2019-04-30T02:23:14.846Z,8.10
2019-04-30T02:24:14.729Z,6.70
2019-04-30T02:25:14.758Z,7.50
2019-04-30T02:26:14.734Z,7.20
2019-04-30T02:27:14.692Z,8.80
2019-04-30T02:28:14.676Z,8.20
2019-04-30T02:29:14.685Z,9.30
2019-04-30T02:30:14.691Z,9.70
2019-04-30T02:31:14.653Z,7.50
2019-04-30T02:32:14.637Z,8.40
2019-04-30T02:33:14.621Z,9.80
2019-04-30T02:34:14.648Z,10.30
2019-04-30T02:35:14.595Z,11.30
2019-04-30T02:36:14.642Z,12.30
2019-04-30T02:37:14.579Z,12.70
2019-04-30T02:38:14.570Z,14.10
2019-04-30T02:39:14.569Z,14.10
2019-04-30T02:40:14.596Z,16.20
2019-04-30T02:41:14.532Z,15.30
2019-04-30T02:42:14.539Z,15.00
2019-04-30T02:43:14.509Z,12.40
2019-04-30T02:44:14.496Z,14.30
2019-04-30T02:45:14.489Z,13.30
2019-04-30T02:46:14.504Z,15.80
2019-04-30T02:47:14.476Z,13.80
2019-04-30T02:48:14.493Z,12.70
2019-04-30T02:49:14.444Z,13.00
2019-04-30T02:50:18.744Z,14.50
2019-04-30T02:51:15.501Z,13.10
2019-04-30T02:52:14.434Z,11.90
2019-04-30T02:53:14.420Z,12.30
2019-04-30T02:54:14.394Z,14.00
2019-04-30T02:55:14.385Z,12.00
2019-04-30T02:56:14.398Z,11.30
2019-04-30T02:57:14.382Z,12.10
2019-04-30T02:58:14.381Z,13.60
2019-04-30T02:59:14.340Z,13.30
2019-04-30T03:00:14.326Z,12.00
2019-04-30T03:01:14.365Z,11.40
2019-04-30T03:02:14.339Z,13.10
2019-04-30T03:03:14.293Z,10.90
2019-04-30T03:04:14.277Z,13.10
2019-04-30T03:05:14.297Z,11.10
2019-04-30T03:06:14.292Z,14.00
2019-04-30T03:07:14.244Z,12.00
2019-04-30T03:08:14.271Z,12.30
2019-04-30T03:09:14.219Z,10.70
2019-04-30T03:10:14.231Z,9.80
2019-04-30T03:11:14.200Z,11.60
2019-04-30T03:12:14.189Z,10.70
2019-04-30T03:13:14.220Z,9.50
2019-04-30T03:14:14.179Z,9.50
2019-04-30T03:15:14.149Z,11.20
2019-04-30T03:16:14.142Z,10.80
2019-04-30T03:17:14.126Z,10.90
2019-04-30T03:18:14.121Z,10.60
2019-04-30T03:19:14.177Z,11.40
2019-04-30T03:20:27.685Z,10.10
2019-04-30T03:21:15.086Z,9.90
2019-04-30T03:22:14.084Z,9.70
2019-04-30T03:23:14.055Z,10.90
2019-04-30T03:24:14.071Z,12.10
2019-04-30T03:25:14.081Z,10.10
2019-04-30T03:26:14.062Z,9.10
2019-04-30T03:27:14.025Z,9.70
2019-04-30T03:28:14.014Z,10.10
2019-04-30T03:29:14.034Z,9.60
2019-04-30T03:30:14.095Z,9.70
2019-04-30T03:31:13.981Z,10.80
2019-04-30T03:32:14.516Z,10.30
2019-04-30T03:33:13.954Z,9.40
2019-04-30T03:34:24.106Z,9.40
2019-04-30T03:35:15.107Z,11.90
2019-04-30T03:36:13.912Z,9.60
2019-04-30T03:37:13.917Z,11.00
2019-04-30T03:38:13.890Z,10.20
2019-04-30T03:39:13.886Z,10.80
2019-04-30T03:40:13.949Z,11.20
2019-04-30T03:41:13.860Z,9.50
2019-04-30T03:42:13.848Z,9.70
2019-04-30T03:43:13.857Z,11.30
2019-04-30T03:44:21.549Z,9.30
2019-04-30T03:45:14.852Z,8.40
2019-04-30T03:46:13.845Z,10.10
2019-04-30T03:47:13.797Z,10.50
2019-04-30T03:48:13.790Z,9.30
2019-04-30T03:49:13.759Z,10.30
2019-04-30T03:50:13.875Z,9.10
2019-04-30T03:51:13.770Z,11.50
2019-04-30T03:52:13.776Z,11.30
2019-04-30T03:53:13.734Z,9.80
2019-04-30T03:54:13.706Z,10.70
2019-04-30T03:55:13.725Z,10.40
2019-04-30T03:56:13.699Z,11.50
2019-04-30T03:57:13.700Z,8.80
2019-04-30T03:58:13.671Z,9.20
2019-04-30T03:59:13.675Z,9.00
2019-04-30T04:00:13.684Z,9.20
2019-04-30T04:01:13.636Z,10.50
2019-04-30T04:02:13.658Z,8.90
2019-04-30T04:03:13.611Z,9.60
2019-04-30T04:04:13.613Z,12.70
2019-04-30T04:05:13.701Z,9.90
2019-04-30T04:06:13.615Z,9.40
2019-04-30T04:07:13.588Z,9.40
2019-04-30T04:08:13.561Z,10.40
2019-04-30T04:09:13.553Z,9.90
2019-04-30T04:10:13.529Z,9.70
2019-04-30T04:11:13.576Z,9.90
2019-04-30T04:12:13.515Z,9.10
2019-04-30T04:13:13.518Z,10.00
2019-04-30T04:14:13.578Z,10.40
2019-04-30T04:15:13.480Z,9.90
2019-04-30T04:16:13.483Z,8.40
2019-04-30T04:17:13.454Z,10.90
2019-04-30T04:18:13.480Z,10.90
2019-04-30T04:19:13.451Z,9.40
2019-04-30T04:20:13.426Z,9.60
2019-04-30T04:21:17.023Z,9.70
2019-04-30T04:22:13.472Z,9.50
2019-04-30T04:23:13.378Z,9.80
2019-04-30T04:24:13.408Z,11.00
2019-04-30T04:25:13.530Z,9.80
2019-04-30T04:26:13.348Z,9.40
2019-04-30T04:27:13.348Z,9.40
2019-04-30T04:28:13.334Z,10.50
2019-04-30T04:29:13.316Z,9.20
2019-04-30T04:30:13.319Z,13.10
2019-04-30T04:31:13.351Z,9.60
2019-04-30T04:32:13.279Z,10.10
2019-04-30T04:33:13.278Z,9.80
2019-04-30T04:34:13.265Z,9.80
2019-04-30T04:35:13.533Z,9.90
2019-04-30T04:36:13.244Z,14.30
2019-04-30T04:37:13.221Z,8.40
2019-04-30T04:38:13.260Z,10.40
2019-04-30T04:39:13.201Z,9.10
2019-04-30T04:40:13.193Z,8.30
2019-04-30T04:41:13.212Z,10.60
2019-04-30T04:42:13.176Z,7.20
2019-04-30T04:43:13.183Z,7.90
2019-04-30T04:44:13.334Z,8.10
2019-04-30T04:45:13.150Z,10.80
2019-04-30T04:46:13.135Z,8.30
2019-04-30T04:47:15.979Z,6.90
2019-04-30T04:48:13.171Z,7.60
2019-04-30T04:49:13.102Z,10.10
2019-04-30T04:50:13.114Z,7.60
2019-04-30T04:51:27.758Z,8.10
2019-04-30T04:52:14.097Z,9.10
2019-04-30T04:53:13.071Z,10.50
2019-04-30T04:54:14.022Z,9.70
2019-04-30T04:55:14.024Z,11.30
2019-04-30T04:56:13.077Z,10.60
2019-04-30T04:57:17.979Z,11.20
2019-04-30T04:58:13.994Z,11.20
2019-04-30T04:59:13.082Z,12.20
2019-04-30T05:00:12.977Z,10.00
2019-04-30T05:01:12.974Z,9.60
2019-04-30T05:02:12.989Z,10.00
2019-04-30T05:03:13.990Z,10.70
2019-04-30T05:04:13.038Z,11.40
2019-04-30T05:05:13.013Z,10.80
2019-04-30T05:06:12.922Z,9.50
2019-04-30T05:07:12.986Z,9.80
2019-04-30T05:08:12.893Z,12.30
2019-04-30T05:09:12.955Z,12.80
2019-04-30T05:10:12.878Z,11.30
2019-04-30T05:11:13.541Z,12.40
2019-04-30T05:12:12.893Z,11.70
2019-04-30T05:13:12.893Z,11.70
2019-04-30T05:14:12.844Z,13.70
2019-04-30T05:15:52.082Z,11.60
2019-04-30T05:16:12.853Z,11.70
2019-04-30T05:17:12.822Z,13.80
2019-04-30T05:18:12.790Z,12.70
2019-04-30T05:19:12.764Z,14.20
2019-04-30T05:20:12.789Z,14.00
2019-04-30T05:21:12.826Z,14.00
2019-04-30T05:22:12.802Z,14.80
2019-04-30T05:23:12.726Z,14.20
2019-04-30T05:24:12.713Z,15.40
2019-04-30T05:25:12.782Z,15.60
2019-04-30T05:26:12.891Z,15.20
2019-04-30T05:27:12.698Z,12.90
2019-04-30T05:28:12.743Z,15.60
2019-04-30T05:29:12.683Z,15.30
2019-04-30T05:30:12.702Z,14.50
2019-04-30T05:31:12.633Z,14.30
2019-04-30T05:32:12.676Z,12.90
2019-04-30T05:33:12.624Z,13.70
2019-04-30T05:34:12.597Z,13.20
2019-04-30T05:35:12.622Z,12.60
2019-04-30T05:36:12.643Z,10.10
2019-04-30T05:37:12.576Z,13.30
2019-04-30T05:38:12.549Z,10.20
2019-04-30T05:39:12.563Z,12.20
2019-04-30T05:40:12.594Z,10.30
2019-04-30T05:41:12.568Z,11.30
2019-04-30T05:42:12.533Z,10.00
2019-04-30T05:43:12.515Z,10.40
2019-04-30T05:44:12.485Z,10.90
2019-04-30T05:45:12.628Z,9.50
2019-04-30T05:46:14.098Z,9.70
2019-04-30T05:47:12.439Z,11.00
2019-04-30T05:48:12.430Z,9.80
2019-04-30T05:49:12.474Z,10.20
2019-04-30T05:50:12.425Z,10.70
2019-04-30T05:51:12.439Z,8.90
2019-04-30T05:52:12.452Z,9.60
2019-04-30T05:53:12.431Z,8.80
2019-04-30T05:54:12.371Z,8.90
2019-04-30T05:55:12.368Z,9.10
2019-04-30T05:56:12.403Z,8.30
2019-04-30T05:57:12.419Z,8.90
2019-04-30T05:58:12.361Z,8.40
2019-04-30T05:59:12.356Z,10.30
2019-04-30T06:00:33.420Z,8.70
2019-04-30T06:01:12.310Z,7.80
2019-04-30T06:02:12.277Z,8.40
2019-04-30T06:03:12.263Z,8.70
2019-04-30T06:04:12.267Z,7.40
2019-04-30T06:05:12.398Z,9.50
2019-04-30T06:06:12.292Z,7.80
2019-04-30T06:07:12.242Z,9.60
2019-04-30T06:08:12.273Z,8.70
2019-04-30T06:09:14.790Z,9.00
2019-04-30T06:10:12.223Z,8.30
2019-04-30T06:11:12.276Z,8.00
2019-04-30T06:12:13.048Z,7.70
2019-04-30T06:13:12.158Z,8.90
2019-04-30T06:14:12.174Z,8.60
2019-04-30T06:15:19.390Z,8.90
2019-04-30T06:16:12.190Z,9.30
2019-04-30T06:17:12.127Z,8.00
2019-04-30T06:18:14.044Z,6.90
2019-04-30T06:19:12.102Z,7.40
2019-04-30T06:20:18.357Z,7.70
2019-04-30T06:21:12.140Z,8.90
2019-04-30T06:22:12.069Z,8.40
2019-04-30T06:23:12.070Z,10.00
2019-04-30T06:24:12.062Z,9.50
2019-04-30T06:25:12.072Z,8.30
2019-04-30T06:26:13.220Z,9.10
2019-04-30T06:27:12.022Z,19.80
2019-04-30T06:28:12.071Z,7.60
2019-04-30T06:29:13.013Z,6.80
2019-04-30T06:30:12.209Z,8.60
2019-04-30T06:31:12.012Z,8.30
2019-04-30T06:32:12.124Z,6.90
2019-04-30T06:33:11.983Z,5.60
2019-04-30T06:34:11.919Z,7.10
2019-04-30T06:35:11.922Z,7.30
2019-04-30T06:36:11.996Z,8.40
2019-04-30T06:37:11.903Z,9.40
2019-04-30T06:38:11.859Z,18.50
2019-04-30T06:39:11.868Z,13.50
2019-04-30T06:40:11.887Z,5.80
2019-04-30T06:41:11.873Z,7.30
2019-04-30T06:42:12.973Z,6.50
2019-04-30T06:43:11.821Z,5.50
2019-04-30T06:44:11.812Z,5.50
2019-04-30T06:45:11.792Z,5.20
2019-04-30T06:46:11.791Z,7.00
2019-04-30T06:47:11.796Z,6.20
2019-04-30T06:48:11.767Z,8.30
2019-04-30T06:49:11.746Z,9.10
2019-04-30T06:50:11.748Z,6.30
2019-04-30T06:51:11.718Z,5.70
2019-04-30T06:52:20.353Z,7.90
2019-04-30T06:53:11.733Z,5.90
2019-04-30T06:54:11.691Z,8.30
2019-04-30T06:55:11.676Z,6.10
2019-04-30T06:56:11.699Z,6.20
2019-04-30T06:57:12.087Z,6.80
2019-04-30T06:58:15.286Z,6.80
2019-04-30T06:59:11.674Z,6.80
2019-04-30T07:00:11.615Z,6.50
2019-04-30T07:01:11.612Z,7.00
2019-04-30T07:02:11.590Z,7.20
2019-04-30T07:03:11.639Z,8.60
2019-04-30T07:04:11.575Z,7.60
2019-04-30T07:05:12.033Z,7.90
2019-04-30T07:06:11.553Z,9.60
2019-04-30T07:07:14.336Z,8.30
2019-04-30T07:08:12.532Z,7.10
2019-04-30T07:09:11.535Z,7.80
2019-04-30T07:10:16.924Z,14.00
2019-04-30T07:11:12.488Z,9.90
2019-04-30T07:12:22.856Z,8.80
2019-04-30T07:13:12.474Z,7.30
2019-04-30T07:14:11.467Z,7.80
2019-04-30T07:15:13.668Z,7.00
2019-04-30T07:16:11.441Z,7.10
2019-04-30T07:17:11.503Z,8.30
2019-04-30T07:18:11.428Z,8.70
2019-04-30T07:19:11.411Z,9.10
2019-04-30T07:20:11.390Z,6.80
2019-04-30T07:21:11.419Z,7.10
2019-04-30T07:22:11.429Z,7.60
2019-04-30T07:23:11.368Z,7.00
2019-04-30T07:24:11.347Z,6.70
2019-04-30T07:25:11.345Z,8.50
2019-04-30T07:26:13.848Z,7.10
2019-04-30T07:27:12.364Z,8.30
2019-04-30T07:28:11.320Z,7.70
2019-04-30T07:29:11.287Z,7.10
2019-04-30T07:30:11.326Z,7.10
2019-04-30T07:31:14.331Z,7.10
2019-04-30T07:32:11.259Z,7.60
2019-04-30T07:33:11.356Z,7.60
2019-04-30T07:34:11.248Z,8.90
2019-04-30T07:35:11.214Z,6.80
2019-04-30T07:36:11.216Z,8.30
2019-04-30T07:37:17.281Z,8.60
2019-04-30T07:38:12.304Z,7.60
2019-04-30T07:39:11.173Z,7.70
2019-04-30T07:40:11.171Z,8.10
2019-04-30T07:41:11.158Z,8.40
2019-04-30T07:42:11.151Z,8.20
2019-04-30T07:43:11.112Z,8.60
2019-04-30T07:44:29.436Z,7.50
2019-04-30T07:45:12.102Z,8.70
2019-04-30T07:46:11.100Z,8.50
2019-04-30T07:47:11.141Z,7.70
2019-04-30T07:48:11.064Z,8.80
2019-04-30T07:49:11.088Z,7.70
2019-04-30T07:50:11.328Z,8.50
2019-04-30T07:51:11.548Z,11.70
2019-04-30T07:52:12.076Z,7.70
2019-04-30T07:53:12.157Z,6.80
2019-04-30T07:54:11.011Z,7.00
2019-04-30T07:55:11.034Z,12.10
2019-04-30T07:56:24.438Z,7.40
2019-04-30T07:57:12.018Z,8.90
2019-04-30T07:58:10.955Z,10.40
2019-04-30T07:59:11.206Z,7.40
2019-04-30T08:00:10.996Z,9.00
2019-04-30T08:01:10.928Z,7.80
2019-04-30T08:02:14.679Z,8.00
2019-04-30T08:03:11.384Z,7.50
2019-04-30T08:04:10.893Z,7.10
2019-04-30T08:05:10.889Z,7.90
2019-04-30T08:06:11.596Z,8.40
2019-04-30T08:07:10.912Z,7.80
2019-04-30T08:08:21.263Z,8.40
2019-04-30T08:09:11.833Z,7.80
2019-04-30T08:10:11.403Z,8.50
2019-04-30T08:11:23.027Z,8.70
2019-04-30T08:12:21.119Z,10.30
2019-04-30T08:13:14.868Z,8.60
2019-04-30T08:14:10.858Z,8.80
2019-04-30T08:15:10.782Z,9.80
2019-04-30T08:16:10.771Z,10.70
2019-04-30T08:17:10.785Z,9.50
2019-04-30T08:18:10.787Z,9.20
2019-04-30T08:19:10.730Z,10.90
2019-04-30T08:20:10.713Z,10.10
2019-04-30T08:21:10.716Z,10.20
2019-04-30T08:22:10.733Z,8.90
2019-04-30T08:23:20.280Z,9.00
2019-04-30T08:24:11.662Z,10.10
2019-04-30T08:25:10.660Z,8.90
2019-04-30T08:26:10.662Z,12.00
2019-04-30T08:27:10.642Z,10.10
2019-04-30T08:28:10.730Z,9.70
2019-04-30T08:29:10.632Z,9.90
2019-04-30T08:30:21.258Z,11.20
2019-04-30T08:31:11.640Z,9.50
2019-04-30T08:32:10.579Z,9.70
2019-04-30T08:33:10.577Z,9.30
2019-04-30T08:34:11.021Z,9.50
2019-04-30T08:35:10.629Z,9.00
2019-04-30T08:36:10.537Z,9.50
2019-04-30T08:37:17.086Z,10.40
2019-04-30T08:38:10.892Z,11.80
2019-04-30T08:39:10.565Z,11.00
2019-04-30T08:40:10.512Z,9.50
2019-04-30T08:41:10.499Z,8.50
2019-04-30T08:42:10.476Z,8.60
2019-04-30T08:43:10.462Z,9.20
2019-04-30T08:44:10.493Z,7.80
2019-04-30T08:45:10.482Z,8.90
2019-04-30T08:46:10.475Z,9.20
2019-04-30T08:47:10.446Z,9.70
2019-04-30T08:48:10.414Z,9.50
2019-04-30T08:49:10.405Z,8.60
2019-04-30T08:50:10.811Z,8.80
2019-04-30T08:51:13.386Z,9.70
2019-04-30T08:52:10.887Z,11.10
2019-04-30T08:53:11.193Z,9.00
2019-04-30T08:54:12.543Z,9.50
2019-04-30T08:55:15.615Z,10.40
2019-04-30T08:56:11.363Z,10.30
2019-04-30T08:57:10.310Z,9.80
2019-04-30T08:58:14.887Z,8.70
2019-04-30T08:59:11.412Z,10.40
2019-04-30T09:00:11.850Z,10.70
2019-04-30T09:01:10.351Z,9.70
2019-04-30T09:02:15.900Z,9.30
2019-04-30T09:03:11.326Z,12.20
2019-04-30T09:04:10.542Z,8.80
2019-04-30T09:05:10.233Z,9.20
2019-04-30T09:06:10.236Z,9.10
2019-04-30T09:07:10.283Z,10.70
2019-04-30T09:08:10.194Z,10.30
2019-04-30T09:09:11.039Z,9.10
2019-04-30T09:10:10.201Z,8.40
2019-04-30T09:11:22.118Z,10.00
2019-04-30T09:12:11.188Z,8.50
2019-04-30T09:13:10.208Z,8.60
2019-04-30T09:14:10.158Z,8.70
2019-04-30T09:15:10.130Z,8.90
2019-04-30T09:16:10.108Z,10.50
2019-04-30T09:17:10.071Z,8.60
2019-04-30T09:18:12.639Z,9.00
2019-04-30T09:19:10.103Z,8.10
2019-04-30T09:20:10.060Z,9.40
2019-04-30T09:21:10.066Z,10.00
2019-04-30T09:22:14.877Z,8.90
2019-04-30T09:23:11.267Z,8.40
2019-04-30T09:24:10.112Z,9.20
2019-04-30T09:25:10.000Z,9.20
2019-04-30T09:26:09.990Z,8.90
2019-04-30T09:27:10.766Z,8.30
2019-04-30T09:28:09.964Z,8.00
2019-04-30T09:29:09.948Z,9.50
2019-04-30T09:30:10.357Z,7.70
2019-04-30T09:31:09.968Z,7.10
2019-04-30T09:32:09.947Z,9.60
2019-04-30T09:33:11.134Z,7.60
2019-04-30T09:34:17.157Z,9.10
2019-04-30T09:35:10.995Z,9.70
2019-04-30T09:36:09.877Z,9.60
2019-04-30T09:37:09.876Z,10.10
2019-04-30T09:38:09.865Z,11.00
2019-04-30T09:39:09.847Z,8.30
2019-04-30T09:40:17.904Z,8.40
2019-04-30T09:41:10.863Z,8.90
2019-04-30T09:42:09.805Z,9.00
2019-04-30T09:43:09.782Z,9.30
2019-04-30T09:44:10.070Z,9.10
2019-04-30T09:45:25.996Z,8.30
2019-04-30T09:46:19.226Z,8.80
2019-04-30T09:47:10.746Z,7.80
2019-04-30T09:48:09.757Z,7.20
2019-04-30T09:49:09.758Z,9.20
2019-04-30T09:50:09.707Z,8.20
2019-04-30T09:51:10.765Z,7.80
2019-04-30T09:52:10.009Z,7.20
2019-04-30T09:53:10.424Z,7.50
2019-04-30T09:54:12.275Z,8.10
2019-04-30T09:55:10.052Z,9.60
2019-04-30T09:56:09.730Z,9.30
2019-04-30T09:57:11.422Z,10.30
2019-04-30T09:58:16.869Z,14.10
2019-04-30T09:59:09.614Z,10.80
2019-04-30T10:00:09.655Z,9.30
2019-04-30T10:01:09.626Z,9.00
2019-04-30T10:02:09.576Z,9.80
2019-04-30T10:03:10.808Z,10.40
2019-04-30T10:04:10.924Z,8.00
2019-04-30T10:05:09.995Z,9.60
2019-04-30T10:06:09.524Z,11.20
2019-04-30T10:07:09.666Z,10.60
2019-04-30T10:08:09.523Z,9.90
2019-04-30T10:09:09.756Z,8.80
2019-04-30T10:10:11.439Z,8.90
2019-04-30T10:11:09.777Z,9.80
2019-04-30T10:12:09.775Z,9.90
2019-04-30T10:13:09.452Z,9.10
2019-04-30T10:14:09.476Z,10.60
2019-04-30T10:15:09.463Z,10.30
2019-04-30T10:16:09.794Z,8.80
2019-04-30T10:17:09.602Z,6.30
2019-04-30T10:18:09.384Z,7.60
2019-04-30T10:19:10.267Z,7.40
2019-04-30T10:20:09.391Z,9.20
2019-04-30T10:21:09.351Z,9.20
2019-04-30T10:22:09.358Z,8.70
2019-04-30T10:23:09.565Z,8.50
2019-04-30T10:24:15.341Z,10.20
2019-04-30T10:25:11.023Z,8.30
2019-04-30T10:26:09.307Z,7.10
2019-04-30T10:27:13.030Z,7.60
2019-04-30T10:28:10.005Z,8.20
2019-04-30T10:29:09.260Z,9.80
2019-04-30T10:30:09.440Z,7.90
2019-04-30T10:31:09.265Z,8.30
2019-04-30T10:32:09.232Z,6.50
2019-04-30T10:33:10.061Z,7.00
2019-04-30T10:34:09.660Z,8.80
2019-04-30T10:35:09.214Z,8.10
2019-04-30T10:36:09.418Z,8.40
2019-04-30T10:37:09.194Z,6.90
2019-04-30T10:38:09.880Z,8.60
2019-04-30T10:39:09.150Z,9.60
2019-04-30T10:40:10.325Z,7.90
2019-04-30T10:41:09.160Z,7.30
2019-04-30T10:42:09.128Z,8.00
2019-04-30T10:43:09.210Z,6.30
2019-04-30T10:44:09.088Z,8.20
2019-04-30T10:45:10.030Z,10.60
2019-04-30T10:46:09.730Z,9.30
2019-04-30T10:47:09.402Z,8.90
2019-04-30T10:48:09.136Z,6.30
2019-04-30T10:49:09.220Z,7.00
2019-04-30T10:50:09.884Z,7.10
2019-04-30T10:51:09.144Z,6.30
2019-04-30T10:52:09.391Z,6.70
2019-04-30T10:53:09.268Z,8.30
2019-04-30T10:54:09.017Z,6.60
2019-04-30T10:55:09.336Z,11.90
2019-04-30T10:56:09.739Z,8.50
2019-04-30T10:57:08.953Z,6.30
2019-04-30T10:58:08.938Z,9.70
2019-04-30T10:59:08.933Z,8.10
2019-04-30T11:00:10.141Z,7.00
2019-04-30T11:01:09.577Z,8.60
2019-04-30T11:02:09.118Z,8.30
2019-04-30T11:03:19.537Z,7.70
2019-04-30T11:04:09.855Z,7.80
2019-04-30T11:05:08.895Z,6.90
2019-04-30T11:06:08.895Z,6.50
2019-04-30T11:07:08.850Z,7.10
2019-04-30T11:08:08.834Z,7.60
2019-04-30T11:09:08.823Z,7.30
2019-04-30T11:10:08.808Z,8.60
2019-04-30T11:11:08.881Z,7.90
2019-04-30T11:12:09.490Z,7.80
2019-04-30T11:13:08.780Z,8.50
2019-04-30T11:14:08.767Z,7.30
2019-04-30T11:15:08.751Z,6.80
2019-04-30T11:16:13.269Z,8.90
2019-04-30T11:17:10.097Z,9.30
2019-04-30T11:18:08.944Z,7.50
2019-04-30T11:19:09.373Z,7.40
2019-04-30T11:20:10.294Z,7.30
2019-04-30T11:21:09.754Z,7.10
2019-04-30T11:22:08.890Z,7.40
2019-04-30T11:23:14.600Z,8.00
2019-04-30T11:24:09.801Z,7.30
2019-04-30T11:25:10.010Z,6.60
2019-04-30T11:26:09.071Z,6.10
2019-04-30T11:27:11.237Z,6.90
2019-04-30T11:28:09.257Z,8.90
2019-04-30T11:29:08.675Z,6.30
2019-04-30T11:30:20.355Z,7.60
2019-04-30T11:31:08.782Z,6.50
2019-04-30T11:32:08.749Z,6.80
2019-04-30T11:33:08.792Z,7.60
2019-04-30T11:34:08.532Z,6.50
2019-04-30T11:35:08.605Z,8.90
2019-04-30T11:36:09.611Z,8.20
2019-04-30T11:37:08.501Z,5.80
2019-04-30T11:38:08.559Z,6.90
2019-04-30T11:39:08.637Z,7.30
2019-04-30T11:40:08.457Z,5.90
2019-04-30T11:41:08.715Z,5.70
2019-04-30T11:42:08.435Z,6.80
2019-04-30T11:43:08.432Z,8.50
2019-04-30T11:44:09.301Z,6.80
2019-04-30T11:45:08.688Z,9.10
2019-04-30T11:46:08.716Z,6.40
2019-04-30T11:47:09.490Z,7.00
2019-04-30T11:48:09.075Z,6.80
2019-04-30T11:49:09.675Z,6.50
2019-04-30T11:50:08.367Z,6.50
2019-04-30T11:51:09.482Z,7.90
2019-04-30T11:52:08.346Z,7.00
2019-04-30T11:53:24.102Z,6.80
2019-04-30T11:54:09.314Z,8.00
2019-04-30T11:55:09.662Z,8.40
2019-04-30T11:56:08.308Z,7.00
2019-04-30T11:57:08.876Z,7.80
2019-04-30T11:58:20.978Z,8.30
2019-04-30T11:59:08.739Z,7.80
2019-04-30T12:00:08.528Z,7.70
2019-04-30T12:01:09.360Z,7.90
2019-04-30T12:02:08.216Z,7.70
2019-04-30T12:03:09.037Z,7.50
2019-04-30T12:04:09.365Z,7.80
2019-04-30T12:05:08.174Z,6.40
2019-04-30T12:06:08.623Z,7.80
2019-04-30T12:07:08.158Z,7.40
2019-04-30T12:08:09.535Z,6.60
2019-04-30T12:09:09.189Z,5.90
2019-04-30T12:10:09.498Z,9.00
2019-04-30T12:11:08.116Z,5.90
2019-04-30T12:12:09.175Z,5.60
2019-04-30T12:13:09.596Z,6.40
2019-04-30T12:14:08.078Z,6.40
2019-04-30T12:15:09.336Z,7.30
2019-04-30T12:16:08.680Z,6.60
2019-04-30T12:17:08.055Z,7.00
2019-04-30T12:18:08.053Z,7.80
2019-04-30T12:19:09.022Z,6.70
2019-04-30T12:20:08.605Z,6.70
2019-04-30T12:21:07.985Z,10.60
2019-04-30T12:22:07.996Z,7.50
2019-04-30T12:23:11.479Z,5.90
2019-04-30T12:24:07.998Z,7.60
2019-04-30T12:25:09.852Z,6.20
2019-04-30T12:26:09.210Z,8.20
2019-04-30T12:27:07.922Z,7.20
2019-04-30T12:28:09.518Z,7.20
2019-04-30T12:29:08.979Z,6.30
2019-04-30T12:30:07.990Z,6.40
2019-04-30T12:31:09.767Z,8.00
2019-04-30T12:32:07.904Z,7.50
2019-04-30T12:33:09.079Z,6.30
2019-04-30T12:34:07.882Z,9.30
2019-04-30T12:35:07.856Z,9.00
2019-04-30T12:36:09.034Z,9.10
2019-04-30T12:37:10.572Z,6.70
2019-04-30T12:38:08.814Z,6.30
2019-04-30T12:39:07.801Z,6.30
2019-04-30T12:40:09.439Z,6.30
2019-04-30T12:41:08.781Z,7.00
2019-04-30T12:42:08.762Z,6.80
2019-04-30T12:43:07.756Z,6.50
2019-04-30T12:44:07.739Z,6.60
2019-04-30T12:45:09.440Z,7.40
2019-04-30T12:46:07.778Z,6.30
2019-04-30T12:47:09.567Z,8.00
2019-04-30T12:48:07.700Z,7.40
2019-04-30T12:49:07.695Z,6.80
2019-04-30T12:50:09.571Z,6.30
2019-04-30T12:51:07.653Z,9.00
2019-04-30T12:52:08.753Z,7.00
2019-04-30T12:53:09.448Z,6.00
2019-04-30T12:54:07.633Z,7.10
2019-04-30T12:55:15.194Z,7.20
2019-04-30T12:56:08.960Z,7.80
2019-04-30T12:57:10.849Z,7.80
2019-04-30T12:58:09.655Z,7.80
2019-04-30T12:59:07.703Z,6.30
2019-04-30T13:00:09.458Z,7.70
2019-04-30T13:01:09.016Z,7.50
2019-04-30T13:02:09.142Z,6.60
2019-04-30T13:03:07.566Z,9.60
2019-04-30T13:04:09.650Z,5.70
2019-04-30T13:05:08.817Z,6.20
2019-04-30T13:06:08.487Z,7.50
2019-04-30T13:07:10.022Z,5.80
2019-04-30T13:08:09.702Z,7.40
2019-04-30T13:09:10.194Z,8.00